sensor_id;sensor_type;location;lat;lon;timestamp;P1;durP1;ratioP1;P2;durP2;ratioP2
79212;SDS011;68639;52.380;9.822;2023-07-13T00:00:48;7.35;;;1.95;;
79212;SDS011;68639;52.380;9.822;2023-07-13T00:03:13;4.93;;;1.80;;
79212;SDS011;68639;52.380;9.822;2023-07-13T00:05:39;6.32;;;1.70;;
79212;SDS011;68639;52.380;9.822;2023-07-13T00:08:05;5.82;;;1.95;;
79212;SDS011;68639;52.380;9.822;2023-07-13T00:10:30;6.07;;;2.13;;
79212;SDS011;68639;52.380;9.822;2023-07-13T00:12:55;5.63;;;2.10;;
79212;SDS011;68639;52.380;9.822;2023-07-13T00:15:22;6.40;;;1.70;;
79212;SDS011;68639;52.380;9.822;2023-07-13T00:17:48;4.65;;;1.85;;
79212;SDS011;68639;52.380;9.822;2023-07-13T00:20:13;4.60;;;1.92;;
79212;SDS011;68639;52.380;9.822;2023-07-13T00:22:39;7.30;;;2.00;;
79212;SDS011;68639;52.380;9.822;2023-07-13T00:25:04;5.63;;;2.30;;
79212;SDS011;68639;52.380;9.822;2023-07-13T00:27:30;5.05;;;1.90;;
79212;SDS011;68639;52.380;9.822;2023-07-13T00:29:57;6.10;;;2.10;;
79212;SDS011;68639;52.380;9.822;2023-07-13T00:32:22;4.70;;;2.00;;
79212;SDS011;68639;52.380;9.822;2023-07-13T00:34:47;5.30;;;2.00;;
79212;SDS011;68639;52.380;9.822;2023-07-13T00:37:12;5.97;;;2.17;;
79212;SDS011;68639;52.380;9.822;2023-07-13T00:39:38;7.43;;;2.58;;
79212;SDS011;68639;52.380;9.822;2023-07-13T00:42:04;7.47;;;2.30;;
79212;SDS011;68639;52.380;9.822;2023-07-13T00:44:29;4.75;;;2.20;;
79212;SDS011;68639;52.380;9.822;2023-07-13T00:46:55;5.25;;;2.10;;
79212;SDS011;68639;52.380;9.822;2023-07-13T00:49:22;5.50;;;2.30;;
79212;SDS011;68639;52.380;9.822;2023-07-13T00:51:49;5.18;;;2.22;;
79212;SDS011;68639;52.380;9.822;2023-07-13T00:54:17;5.30;;;2.20;;
79212;SDS011;68639;52.380;9.822;2023-07-13T00:56:43;6.85;;;2.60;;
79212;SDS011;68639;52.380;9.822;2023-07-13T00:59:10;5.18;;;2.35;;
79212;SDS011;68639;52.380;9.822;2023-07-13T01:01:36;8.07;;;2.35;;
79212;SDS011;68639;52.380;9.822;2023-07-13T01:04:02;5.93;;;2.60;;
79212;SDS011;68639;52.380;9.822;2023-07-13T01:06:27;8.43;;;2.92;;
79212;SDS011;68639;52.380;9.822;2023-07-13T01:08:52;7.32;;;2.70;;
79212;SDS011;68639;52.380;9.822;2023-07-13T01:11:19;6.75;;;2.40;;
79212;SDS011;68639;52.380;9.822;2023-07-13T01:13:46;7.30;;;2.60;;
79212;SDS011;68639;52.380;9.822;2023-07-13T01:16:18;9.18;;;2.80;;
79212;SDS011;68639;52.380;9.822;2023-07-13T01:18:44;6.97;;;2.67;;
79212;SDS011;68639;52.380;9.822;2023-07-13T01:21:09;7.20;;;2.63;;
79212;SDS011;68639;52.380;9.822;2023-07-13T01:23:34;6.90;;;2.60;;
79212;SDS011;68639;52.380;9.822;2023-07-13T01:26:00;6.75;;;2.58;;
79212;SDS011;68639;52.380;9.822;2023-07-13T01:28:26;6.82;;;2.60;;
79212;SDS011;68639;52.380;9.822;2023-07-13T01:30:55;6.65;;;3.03;;
79212;SDS011;68639;52.380;9.822;2023-07-13T01:33:21;7.70;;;2.60;;
79212;SDS011;68639;52.380;9.822;2023-07-13T01:35:46;6.18;;;2.55;;
79212;SDS011;68639;52.380;9.822;2023-07-13T01:38:13;7.50;;;2.63;;
79212;SDS011;68639;52.380;9.822;2023-07-13T01:40:38;8.40;;;2.92;;
79212;SDS011;68639;52.380;9.822;2023-07-13T01:43:04;6.68;;;2.70;;
79212;SDS011;68639;52.380;9.822;2023-07-13T01:45:29;8.02;;;2.70;;
79212;SDS011;68639;52.380;9.822;2023-07-13T01:47:55;9.65;;;2.80;;
79212;SDS011;68639;52.380;9.822;2023-07-13T01:50:20;7.22;;;2.80;;
79212;SDS011;68639;52.380;9.822;2023-07-13T01:52:45;7.13;;;3.00;;
79212;SDS011;68639;52.380;9.822;2023-07-13T01:55:10;9.25;;;2.97;;
79212;SDS011;68639;52.380;9.822;2023-07-13T01:57:36;5.43;;;2.75;;
79212;SDS011;68639;52.380;9.822;2023-07-13T02:00:03;8.10;;;3.00;;
79212;SDS011;68639;52.380;9.822;2023-07-13T02:02:29;8.20;;;2.80;;
79212;SDS011;68639;52.380;9.822;2023-07-13T02:04:54;5.60;;;3.03;;
79212;SDS011;68639;52.380;9.822;2023-07-13T02:07:20;9.63;;;3.17;;
79212;SDS011;68639;52.380;9.822;2023-07-13T02:09:45;8.52;;;2.83;;
79212;SDS011;68639;52.380;9.822;2023-07-13T02:12:10;8.35;;;2.97;;
79212;SDS011;68639;52.380;9.822;2023-07-13T02:14:35;9.05;;;3.33;;
79212;SDS011;68639;52.380;9.822;2023-07-13T02:17:00;6.50;;;3.03;;
79212;SDS011;68639;52.380;9.822;2023-07-13T02:19:26;9.32;;;3.22;;
79212;SDS011;68639;52.380;9.822;2023-07-13T02:21:51;8.02;;;3.67;;
79212;SDS011;68639;52.380;9.822;2023-07-13T02:24:16;7.75;;;3.00;;
79212;SDS011;68639;52.380;9.822;2023-07-13T02:26:44;6.20;;;3.00;;
79212;SDS011;68639;52.380;9.822;2023-07-13T02:29:09;7.18;;;2.97;;
79212;SDS011;68639;52.380;9.822;2023-07-13T02:31:35;6.85;;;2.88;;
79212;SDS011;68639;52.380;9.822;2023-07-13T02:34:01;8.23;;;2.78;;
79212;SDS011;68639;52.380;9.822;2023-07-13T02:36:26;5.93;;;3.22;;
79212;SDS011;68639;52.380;9.822;2023-07-13T02:38:51;8.73;;;3.05;;
79212;SDS011;68639;52.380;9.822;2023-07-13T02:41:16;6.80;;;2.67;;
79212;SDS011;68639;52.380;9.822;2023-07-13T02:43:41;7.88;;;2.85;;
79212;SDS011;68639;52.380;9.822;2023-07-13T02:46:06;7.30;;;3.13;;
79212;SDS011;68639;52.380;9.822;2023-07-13T02:48:35;8.07;;;2.75;;
79212;SDS011;68639;52.380;9.822;2023-07-13T02:51:01;6.70;;;2.88;;
79212;SDS011;68639;52.380;9.822;2023-07-13T02:53:26;10.63;;;3.00;;
79212;SDS011;68639;52.380;9.822;2023-07-13T02:55:51;8.32;;;2.78;;
79212;SDS011;68639;52.380;9.822;2023-07-13T02:58:17;7.18;;;2.65;;
79212;SDS011;68639;52.380;9.822;2023-07-13T03:00:47;8.05;;;2.97;;
79212;SDS011;68639;52.380;9.822;2023-07-13T03:03:12;5.85;;;2.47;;
79212;SDS011;68639;52.380;9.822;2023-07-13T03:05:40;9.00;;;2.90;;
79212;SDS011;68639;52.380;9.822;2023-07-13T03:08:05;7.18;;;2.75;;
79212;SDS011;68639;52.380;9.822;2023-07-13T03:10:31;5.53;;;2.80;;
79212;SDS011;68639;52.380;9.822;2023-07-13T03:12:56;6.70;;;2.95;;
79212;SDS011;68639;52.380;9.822;2023-07-13T03:15:21;6.13;;;2.42;;
79212;SDS011;68639;52.380;9.822;2023-07-13T03:17:46;5.85;;;2.53;;
79212;SDS011;68639;52.380;9.822;2023-07-13T03:20:12;9.30;;;2.65;;
79212;SDS011;68639;52.380;9.822;2023-07-13T03:22:38;6.30;;;2.53;;
79212;SDS011;68639;52.380;9.822;2023-07-13T03:25:03;7.50;;;2.80;;
79212;SDS011;68639;52.380;9.822;2023-07-13T03:27:29;8.35;;;2.90;;
79212;SDS011;68639;52.380;9.822;2023-07-13T03:29:54;12.27;;;2.55;;
79212;SDS011;68639;52.380;9.822;2023-07-13T03:32:19;6.90;;;2.20;;
79212;SDS011;68639;52.380;9.822;2023-07-13T03:34:44;9.10;;;2.00;;
79212;SDS011;68639;52.380;9.822;2023-07-13T03:37:09;12.35;;;2.80;;
79212;SDS011;68639;52.380;9.822;2023-07-13T03:39:35;11.15;;;2.70;;
79212;SDS011;68639;52.380;9.822;2023-07-13T03:42:00;9.32;;;2.60;;
79212;SDS011;68639;52.380;9.822;2023-07-13T03:44:25;7.05;;;2.42;;
79212;SDS011;68639;52.380;9.822;2023-07-13T03:46:50;7.85;;;2.25;;
79212;SDS011;68639;52.380;9.822;2023-07-13T03:49:15;9.50;;;2.58;;
79212;SDS011;68639;52.380;9.822;2023-07-13T03:51:41;7.43;;;2.60;;
79212;SDS011;68639;52.380;9.822;2023-07-13T03:54:06;10.52;;;2.83;;
79212;SDS011;68639;52.380;9.822;2023-07-13T03:56:31;7.55;;;2.50;;
79212;SDS011;68639;52.380;9.822;2023-07-13T03:58:58;9.23;;;2.70;;
79212;SDS011;68639;52.380;9.822;2023-07-13T04:01:23;8.35;;;2.50;;
79212;SDS011;68639;52.380;9.822;2023-07-13T04:03:50;8.57;;;2.50;;
79212;SDS011;68639;52.380;9.822;2023-07-13T04:06:16;7.03;;;2.17;;
79212;SDS011;68639;52.380;9.822;2023-07-13T04:08:46;7.60;;;2.60;;
79212;SDS011;68639;52.380;9.822;2023-07-13T04:11:11;8.15;;;2.60;;
79212;SDS011;68639;52.380;9.822;2023-07-13T04:13:37;7.13;;;2.40;;
79212;SDS011;68639;52.380;9.822;2023-07-13T04:16:02;8.40;;;2.33;;
79212;SDS011;68639;52.380;9.822;2023-07-13T04:18:27;8.43;;;2.50;;
79212;SDS011;68639;52.380;9.822;2023-07-13T04:20:52;8.25;;;2.28;;
79212;SDS011;68639;52.380;9.822;2023-07-13T04:23:17;8.57;;;2.35;;
79212;SDS011;68639;52.380;9.822;2023-07-13T04:25:43;8.55;;;2.70;;
79212;SDS011;68639;52.380;9.822;2023-07-13T04:28:08;8.35;;;2.40;;
79212;SDS011;68639;52.380;9.822;2023-07-13T04:30:34;6.68;;;1.92;;
79212;SDS011;68639;52.380;9.822;2023-07-13T04:32:59;8.20;;;2.10;;
79212;SDS011;68639;52.380;9.822;2023-07-13T04:35:24;6.85;;;2.03;;
79212;SDS011;68639;52.380;9.822;2023-07-13T04:37:50;6.40;;;2.05;;
79212;SDS011;68639;52.380;9.822;2023-07-13T04:40:18;6.45;;;2.10;;
79212;SDS011;68639;52.380;9.822;2023-07-13T04:42:44;9.43;;;2.35;;
79212;SDS011;68639;52.380;9.822;2023-07-13T04:45:09;6.63;;;1.92;;
79212;SDS011;68639;52.380;9.822;2023-07-13T04:47:35;7.13;;;2.10;;
79212;SDS011;68639;52.380;9.822;2023-07-13T04:50:00;9.90;;;2.17;;
79212;SDS011;68639;52.380;9.822;2023-07-13T04:52:25;8.73;;;2.10;;
79212;SDS011;68639;52.380;9.822;2023-07-13T04:54:51;9.80;;;2.13;;
79212;SDS011;68639;52.380;9.822;2023-07-13T04:57:16;9.88;;;2.03;;
79212;SDS011;68639;52.380;9.822;2023-07-13T04:59:41;8.20;;;1.92;;
79212;SDS011;68639;52.380;9.822;2023-07-13T05:02:06;6.60;;;1.60;;
79212;SDS011;68639;52.380;9.822;2023-07-13T05:04:32;7.32;;;1.80;;
79212;SDS011;68639;52.380;9.822;2023-07-13T05:06:57;9.95;;;2.08;;
79212;SDS011;68639;52.380;9.822;2023-07-13T05:09:22;10.68;;;2.20;;
79212;SDS011;68639;52.380;9.822;2023-07-13T05:11:47;7.07;;;1.73;;
79212;SDS011;68639;52.380;9.822;2023-07-13T05:14:13;6.68;;;1.83;;
79212;SDS011;68639;52.380;9.822;2023-07-13T05:16:38;9.68;;;1.85;;
79212;SDS011;68639;52.380;9.822;2023-07-13T05:19:03;12.32;;;2.33;;
79212;SDS011;68639;52.380;9.822;2023-07-13T05:21:28;9.57;;;2.08;;
79212;SDS011;68639;52.380;9.822;2023-07-13T05:23:54;6.63;;;1.63;;
79212;SDS011;68639;52.380;9.822;2023-07-13T05:26:19;7.90;;;1.70;;
79212;SDS011;68639;52.380;9.822;2023-07-13T05:28:45;11.55;;;1.98;;
79212;SDS011;68639;52.380;9.822;2023-07-13T05:31:10;9.57;;;1.90;;
79212;SDS011;68639;52.380;9.822;2023-07-13T05:33:36;13.38;;;2.00;;
79212;SDS011;68639;52.380;9.822;2023-07-13T05:36:01;6.63;;;1.95;;
79212;SDS011;68639;52.380;9.822;2023-07-13T05:38:27;9.30;;;1.98;;
79212;SDS011;68639;52.380;9.822;2023-07-13T05:40:53;8.88;;;2.20;;
79212;SDS011;68639;52.380;9.822;2023-07-13T05:43:19;12.13;;;2.58;;
79212;SDS011;68639;52.380;9.822;2023-07-13T05:45:44;8.18;;;2.10;;
79212;SDS011;68639;52.380;9.822;2023-07-13T05:48:09;12.10;;;2.20;;
79212;SDS011;68639;52.380;9.822;2023-07-13T05:50:34;9.45;;;1.70;;
79212;SDS011;68639;52.380;9.822;2023-07-13T05:52:59;13.35;;;2.58;;
79212;SDS011;68639;52.380;9.822;2023-07-13T05:55:25;8.57;;;1.95;;
79212;SDS011;68639;52.380;9.822;2023-07-13T05:57:50;8.63;;;2.10;;
79212;SDS011;68639;52.380;9.822;2023-07-13T06:00:15;12.50;;;1.88;;
79212;SDS011;68639;52.380;9.822;2023-07-13T06:02:41;9.45;;;1.98;;
79212;SDS011;68639;52.380;9.822;2023-07-13T06:05:06;10.98;;;1.83;;
79212;SDS011;68639;52.380;9.822;2023-07-13T06:07:32;8.90;;;2.17;;
79212;SDS011;68639;52.380;9.822;2023-07-13T06:09:57;14.60;;;3.00;;
79212;SDS011;68639;52.380;9.822;2023-07-13T06:12:24;12.25;;;2.30;;
79212;SDS011;68639;52.380;9.822;2023-07-13T06:14:49;11.38;;;2.72;;
79212;SDS011;68639;52.380;9.822;2023-07-13T06:17:14;13.63;;;2.50;;
79212;SDS011;68639;52.380;9.822;2023-07-13T06:19:39;11.30;;;2.87;;
79212;SDS011;68639;52.380;9.822;2023-07-13T06:22:05;9.05;;;2.03;;
79212;SDS011;68639;52.380;9.822;2023-07-13T06:24:30;11.98;;;2.50;;
79212;SDS011;68639;52.380;9.822;2023-07-13T06:26:55;10.15;;;1.98;;
79212;SDS011;68639;52.380;9.822;2023-07-13T06:29:20;10.52;;;2.15;;
79212;SDS011;68639;52.380;9.822;2023-07-13T06:31:45;10.50;;;2.70;;
79212;SDS011;68639;52.380;9.822;2023-07-13T06:34:11;12.32;;;2.40;;
79212;SDS011;68639;52.380;9.822;2023-07-13T06:36:36;9.63;;;2.10;;
79212;SDS011;68639;52.380;9.822;2023-07-13T06:39:03;8.93;;;2.10;;
79212;SDS011;68639;52.380;9.822;2023-07-13T06:41:28;12.82;;;2.45;;
79212;SDS011;68639;52.380;9.822;2023-07-13T06:43:55;14.85;;;2.53;;
79212;SDS011;68639;52.380;9.822;2023-07-13T06:46:21;9.88;;;2.35;;
79212;SDS011;68639;52.380;9.822;2023-07-13T06:48:46;7.60;;;2.05;;
79212;SDS011;68639;52.380;9.822;2023-07-13T06:51:12;11.00;;;2.60;;
79212;SDS011;68639;52.380;9.822;2023-07-13T06:53:37;9.80;;;2.53;;
79212;SDS011;68639;52.380;9.822;2023-07-13T06:56:02;8.73;;;2.22;;
79212;SDS011;68639;52.380;9.822;2023-07-13T06:58:27;14.70;;;2.45;;
79212;SDS011;68639;52.380;9.822;2023-07-13T07:00:53;12.25;;;2.58;;
79212;SDS011;68639;52.380;9.822;2023-07-13T07:03:18;12.38;;;2.78;;
79212;SDS011;68639;52.380;9.822;2023-07-13T07:05:43;8.55;;;1.90;;
79212;SDS011;68639;52.380;9.822;2023-07-13T07:08:09;7.72;;;2.10;;
79212;SDS011;68639;52.380;9.822;2023-07-13T07:10:34;12.60;;;2.22;;
79212;SDS011;68639;52.380;9.822;2023-07-13T07:12:59;11.45;;;2.45;;
79212;SDS011;68639;52.380;9.822;2023-07-13T07:15:25;8.05;;;2.25;;
79212;SDS011;68639;52.380;9.822;2023-07-13T07:17:50;7.45;;;1.70;;
79212;SDS011;68639;52.380;9.822;2023-07-13T07:20:15;6.47;;;1.90;;
79212;SDS011;68639;52.380;9.822;2023-07-13T07:22:41;9.32;;;2.05;;
79212;SDS011;68639;52.380;9.822;2023-07-13T07:25:06;9.77;;;2.08;;
79212;SDS011;68639;52.380;9.822;2023-07-13T07:27:32;11.80;;;2.30;;
79212;SDS011;68639;52.380;9.822;2023-07-13T07:29:57;8.60;;;2.00;;
79212;SDS011;68639;52.380;9.822;2023-07-13T07:32:22;10.68;;;1.77;;
79212;SDS011;68639;52.380;9.822;2023-07-13T07:34:47;8.60;;;1.88;;
79212;SDS011;68639;52.380;9.822;2023-07-13T07:37:13;7.03;;;1.80;;
79212;SDS011;68639;52.380;9.822;2023-07-13T07:39:39;11.63;;;2.50;;
79212;SDS011;68639;52.380;9.822;2023-07-13T07:42:04;8.45;;;1.88;;
79212;SDS011;68639;52.380;9.822;2023-07-13T07:44:30;6.72;;;1.67;;
79212;SDS011;68639;52.380;9.822;2023-07-13T07:46:55;6.38;;;1.38;;
79212;SDS011;68639;52.380;9.822;2023-07-13T07:49:21;11.05;;;2.10;;
79212;SDS011;68639;52.380;9.822;2023-07-13T07:51:46;7.50;;;1.65;;
79212;SDS011;68639;52.380;9.822;2023-07-13T07:54:12;5.45;;;1.60;;
79212;SDS011;68639;52.380;9.822;2023-07-13T07:56:37;7.67;;;1.73;;
79212;SDS011;68639;52.380;9.822;2023-07-13T07:59:02;6.23;;;1.60;;
79212;SDS011;68639;52.380;9.822;2023-07-13T08:01:27;11.00;;;1.95;;
79212;SDS011;68639;52.380;9.822;2023-07-13T08:03:52;8.83;;;1.63;;
79212;SDS011;68639;52.380;9.822;2023-07-13T08:06:18;8.30;;;2.28;;
79212;SDS011;68639;52.380;9.822;2023-07-13T08:08:44;7.55;;;1.65;;
79212;SDS011;68639;52.380;9.822;2023-07-13T08:11:10;8.75;;;1.40;;
79212;SDS011;68639;52.380;9.822;2023-07-13T08:13:36;9.80;;;1.67;;
79212;SDS011;68639;52.380;9.822;2023-07-13T08:16:03;6.80;;;1.50;;
79212;SDS011;68639;52.380;9.822;2023-07-13T08:18:29;7.47;;;1.50;;
79212;SDS011;68639;52.380;9.822;2023-07-13T08:20:54;8.82;;;1.58;;
79212;SDS011;68639;52.380;9.822;2023-07-13T08:23:21;8.20;;;1.75;;
79212;SDS011;68639;52.380;9.822;2023-07-13T08:25:50;6.70;;;1.50;;
79212;SDS011;68639;52.380;9.822;2023-07-13T08:28:16;11.05;;;2.15;;
79212;SDS011;68639;52.380;9.822;2023-07-13T08:30:41;11.07;;;1.87;;
79212;SDS011;68639;52.380;9.822;2023-07-13T08:33:06;7.32;;;1.80;;
79212;SDS011;68639;52.380;9.822;2023-07-13T08:35:31;7.35;;;1.90;;
79212;SDS011;68639;52.380;9.822;2023-07-13T08:37:56;9.43;;;1.57;;
79212;SDS011;68639;52.380;9.822;2023-07-13T08:40:23;7.32;;;1.80;;
79212;SDS011;68639;52.380;9.822;2023-07-13T08:42:54;8.18;;;1.73;;
79212;SDS011;68639;52.380;9.822;2023-07-13T08:45:22;8.77;;;1.90;;
79212;SDS011;68639;52.380;9.822;2023-07-13T08:47:52;10.40;;;1.88;;
79212;SDS011;68639;52.380;9.822;2023-07-13T08:50:19;7.97;;;1.60;;
79212;SDS011;68639;52.380;9.822;2023-07-13T08:52:46;11.38;;;2.00;;
79212;SDS011;68639;52.380;9.822;2023-07-13T08:55:18;6.82;;;1.77;;
79212;SDS011;68639;52.380;9.822;2023-07-13T08:57:46;7.22;;;1.60;;
79212;SDS011;68639;52.380;9.822;2023-07-13T09:00:13;9.68;;;1.83;;
79212;SDS011;68639;52.380;9.822;2023-07-13T09:05:17;9.63;;;1.98;;
79212;SDS011;68639;52.380;9.822;2023-07-13T09:07:52;6.55;;;1.60;;
79212;SDS011;68639;52.380;9.822;2023-07-13T09:10:21;7.72;;;1.80;;
79212;SDS011;68639;52.380;9.822;2023-07-13T09:15:39;9.43;;;1.70;;
79212;SDS011;68639;52.380;9.822;2023-07-13T09:18:16;9.27;;;1.80;;
79212;SDS011;68639;52.380;9.822;2023-07-13T09:23:22;7.32;;;1.75;;
79212;SDS011;68639;52.380;9.822;2023-07-13T09:25:48;10.15;;;1.83;;
79212;SDS011;68639;52.380;9.822;2023-07-13T09:31:04;9.33;;;1.90;;
79212;SDS011;68639;52.380;9.822;2023-07-13T09:33:31;7.95;;;1.83;;
79212;SDS011;68639;52.380;9.822;2023-07-13T09:35:56;6.50;;;1.80;;
79212;SDS011;68639;52.380;9.822;2023-07-13T09:38:25;9.40;;;1.75;;
79212;SDS011;68639;52.380;9.822;2023-07-13T09:43:26;8.30;;;2.00;;
79212;SDS011;68639;52.380;9.822;2023-07-13T09:45:54;8.85;;;1.90;;
79212;SDS011;68639;52.380;9.822;2023-07-13T09:48:19;5.93;;;1.60;;
79212;SDS011;68639;52.380;9.822;2023-07-13T09:50:44;6.28;;;1.70;;
79212;SDS011;68639;52.380;9.822;2023-07-13T09:53:14;5.93;;;1.77;;
79212;SDS011;68639;52.380;9.822;2023-07-13T09:55:39;9.90;;;2.05;;
79212;SDS011;68639;52.380;9.822;2023-07-13T09:58:18;10.68;;;1.95;;
79212;SDS011;68639;52.380;9.822;2023-07-13T10:00:57;8.73;;;1.50;;
79212;SDS011;68639;52.380;9.822;2023-07-13T10:03:24;6.25;;;1.40;;
79212;SDS011;68639;52.380;9.822;2023-07-13T10:05:51;5.03;;;1.20;;
79212;SDS011;68639;52.380;9.822;2023-07-13T10:10:57;7.88;;;1.45;;
79212;SDS011;68639;52.380;9.822;2023-07-13T10:13:33;6.95;;;1.60;;
79212;SDS011;68639;52.380;9.822;2023-07-13T10:16:00;7.63;;;1.63;;
79212;SDS011;68639;52.380;9.822;2023-07-13T10:18:25;5.80;;;1.60;;
79212;SDS011;68639;52.380;9.822;2023-07-13T10:20:58;6.68;;;1.60;;
79212;SDS011;68639;52.380;9.822;2023-07-13T10:23:27;7.78;;;1.60;;
79212;SDS011;68639;52.380;9.822;2023-07-13T10:25:54;8.77;;;1.92;;
79212;SDS011;68639;52.380;9.822;2023-07-13T10:28:26;5.55;;;1.40;;
79212;SDS011;68639;52.380;9.822;2023-07-13T10:30:52;6.72;;;1.60;;
79212;SDS011;68639;52.380;9.822;2023-07-13T10:33:18;10.60;;;1.60;;
79212;SDS011;68639;52.380;9.822;2023-07-13T10:35:44;7.07;;;1.70;;
79212;SDS011;68639;52.380;9.822;2023-07-13T10:38:12;8.32;;;1.80;;
79212;SDS011;68639;52.380;9.822;2023-07-13T10:43:04;9.00;;;1.50;;
79212;SDS011;68639;52.380;9.822;2023-07-13T10:45:33;17.40;;;2.05;;
79212;SDS011;68639;52.380;9.822;2023-07-13T10:47:59;6.30;;;1.40;;
79212;SDS011;68639;52.380;9.822;2023-07-13T10:50:25;5.57;;;1.45;;
79212;SDS011;68639;52.380;9.822;2023-07-13T10:52:52;5.55;;;1.38;;
79212;SDS011;68639;52.380;9.822;2023-07-13T10:55:54;6.95;;;1.75;;
79212;SDS011;68639;52.380;9.822;2023-07-13T10:58:21;5.97;;;1.50;;
79212;SDS011;68639;52.380;9.822;2023-07-13T11:00:47;7.15;;;1.70;;
79212;SDS011;68639;52.380;9.822;2023-07-13T11:03:14;3.95;;;1.23;;
79212;SDS011;68639;52.380;9.822;2023-07-13T11:05:40;8.57;;;1.27;;
79212;SDS011;68639;52.380;9.822;2023-07-13T11:15:58;11.00;;;1.83;;
79212;SDS011;68639;52.380;9.822;2023-07-13T11:18:23;8.20;;;1.50;;
79212;SDS011;68639;52.380;9.822;2023-07-13T11:20:50;6.45;;;1.60;;
79212;SDS011;68639;52.380;9.822;2023-07-13T11:25:41;8.65;;;1.60;;
79212;SDS011;68639;52.380;9.822;2023-07-13T11:30:39;5.05;;;1.33;;
79212;SDS011;68639;52.380;9.822;2023-07-13T11:35:37;6.40;;;1.58;;
79212;SDS011;68639;52.380;9.822;2023-07-13T11:38:08;5.80;;;1.48;;
79212;SDS011;68639;52.380;9.822;2023-07-13T11:40:35;8.23;;;1.70;;
79212;SDS011;68639;52.380;9.822;2023-07-13T11:43:00;6.72;;;1.60;;
79212;SDS011;68639;52.380;9.822;2023-07-13T11:45:26;4.38;;;1.15;;
79212;SDS011;68639;52.380;9.822;2023-07-13T11:47:53;4.40;;;1.40;;
79212;SDS011;68639;52.380;9.822;2023-07-13T11:50:22;6.40;;;1.33;;
79212;SDS011;68639;52.380;9.822;2023-07-13T11:52:48;5.05;;;1.20;;
79212;SDS011;68639;52.380;9.822;2023-07-13T11:55:16;5.78;;;1.13;;
79212;SDS011;68639;52.380;9.822;2023-07-13T11:57:44;4.85;;;1.40;;
79212;SDS011;68639;52.380;9.822;2023-07-13T12:00:12;4.88;;;1.40;;
79212;SDS011;68639;52.380;9.822;2023-07-13T12:02:39;5.78;;;1.08;;
79212;SDS011;68639;52.380;9.822;2023-07-13T12:05:06;4.05;;;1.23;;
79212;SDS011;68639;52.380;9.822;2023-07-13T12:07:35;4.82;;;1.27;;
79212;SDS011;68639;52.380;9.822;2023-07-13T12:10:02;5.50;;;1.30;;
79212;SDS011;68639;52.380;9.822;2023-07-13T12:12:29;4.60;;;1.60;;
79212;SDS011;68639;52.380;9.822;2023-07-13T12:14:55;2.83;;;1.20;;
79212;SDS011;68639;52.380;9.822;2023-07-13T12:17:21;4.70;;;1.30;;
79212;SDS011;68639;52.380;9.822;2023-07-13T12:19:47;5.18;;;1.50;;
79212;SDS011;68639;52.380;9.822;2023-07-13T12:22:13;7.43;;;1.48;;
79212;SDS011;68639;52.380;9.822;2023-07-13T12:24:39;3.42;;;1.17;;
79212;SDS011;68639;52.380;9.822;2023-07-13T12:27:05;3.63;;;1.20;;
79212;SDS011;68639;52.380;9.822;2023-07-13T12:29:31;4.18;;;1.33;;
79212;SDS011;68639;52.380;9.822;2023-07-13T12:31:56;6.32;;;1.60;;
79212;SDS011;68639;52.380;9.822;2023-07-13T12:34:22;5.82;;;1.55;;
79212;SDS011;68639;52.380;9.822;2023-07-13T12:36:55;7.50;;;1.65;;
79212;SDS011;68639;52.380;9.822;2023-07-13T12:39:25;5.82;;;1.35;;
79212;SDS011;68639;52.380;9.822;2023-07-13T12:41:52;9.25;;;1.70;;
79212;SDS011;68639;52.380;9.822;2023-07-13T12:44:26;8.02;;;1.77;;
79212;SDS011;68639;52.380;9.822;2023-07-13T12:46:53;10.98;;;2.10;;
79212;SDS011;68639;52.380;9.822;2023-07-13T12:49:18;4.00;;;1.30;;
79212;SDS011;68639;52.380;9.822;2023-07-13T12:51:49;5.10;;;1.60;;
79212;SDS011;68639;52.380;9.822;2023-07-13T12:54:18;6.72;;;1.65;;
79212;SDS011;68639;52.380;9.822;2023-07-13T12:56:44;7.03;;;1.50;;
79212;SDS011;68639;52.380;9.822;2023-07-13T12:59:14;4.80;;;1.65;;
79212;SDS011;68639;52.380;9.822;2023-07-13T13:01:41;4.00;;;1.50;;
79212;SDS011;68639;52.380;9.822;2023-07-13T13:04:08;4.57;;;1.50;;
79212;SDS011;68639;52.380;9.822;2023-07-13T13:06:36;7.00;;;1.45;;
79212;SDS011;68639;52.380;9.822;2023-07-13T13:09:02;7.10;;;1.50;;
79212;SDS011;68639;52.380;9.822;2023-07-13T13:11:29;4.18;;;1.40;;
79212;SDS011;68639;52.380;9.822;2023-07-13T13:13:54;7.45;;;1.90;;
79212;SDS011;68639;52.380;9.822;2023-07-13T13:18:52;13.75;;;3.03;;
79212;SDS011;68639;52.380;9.822;2023-07-13T13:21:18;10.63;;;2.08;;
79212;SDS011;68639;52.380;9.822;2023-07-13T13:23:43;8.32;;;2.25;;
79212;SDS011;68639;52.380;9.822;2023-07-13T13:26:10;5.10;;;1.90;;
79212;SDS011;68639;52.380;9.822;2023-07-13T13:28:36;9.23;;;2.05;;
79212;SDS011;68639;52.380;9.822;2023-07-13T13:31:01;7.57;;;2.10;;
79212;SDS011;68639;52.380;9.822;2023-07-13T13:33:26;5.88;;;2.08;;
79212;SDS011;68639;52.380;9.822;2023-07-13T13:35:51;10.20;;;2.30;;
79212;SDS011;68639;52.380;9.822;2023-07-13T13:38:17;6.90;;;2.22;;
79212;SDS011;68639;52.380;9.822;2023-07-13T13:40:44;6.40;;;2.45;;
79212;SDS011;68639;52.380;9.822;2023-07-13T13:43:23;8.98;;;2.22;;
79212;SDS011;68639;52.380;9.822;2023-07-13T13:45:52;8.30;;;2.08;;
79212;SDS011;68639;52.380;9.822;2023-07-13T13:48:18;10.63;;;2.40;;
79212;SDS011;68639;52.380;9.822;2023-07-13T13:50:43;19.17;;;2.90;;
79212;SDS011;68639;52.380;9.822;2023-07-13T13:53:10;12.48;;;2.30;;
79212;SDS011;68639;52.380;9.822;2023-07-13T13:55:35;7.32;;;1.92;;
79212;SDS011;68639;52.380;9.822;2023-07-13T13:58:00;5.07;;;1.92;;
79212;SDS011;68639;52.380;9.822;2023-07-13T14:00:25;6.57;;;2.10;;
79212;SDS011;68639;52.380;9.822;2023-07-13T14:02:51;3.75;;;1.80;;
79212;SDS011;68639;52.380;9.822;2023-07-13T14:05:22;9.93;;;1.90;;
79212;SDS011;68639;52.380;9.822;2023-07-13T14:07:47;4.85;;;1.92;;
79212;SDS011;68639;52.380;9.822;2023-07-13T14:10:14;7.20;;;2.22;;
79212;SDS011;68639;52.380;9.822;2023-07-13T14:12:40;6.93;;;1.90;;
79212;SDS011;68639;52.380;9.822;2023-07-13T14:15:06;10.23;;;2.13;;
79212;SDS011;68639;52.380;9.822;2023-07-13T14:17:31;5.90;;;2.00;;
79212;SDS011;68639;52.380;9.822;2023-07-13T14:19:58;10.07;;;2.13;;
79212;SDS011;68639;52.380;9.822;2023-07-13T14:22:24;9.20;;;2.00;;
79212;SDS011;68639;52.380;9.822;2023-07-13T14:24:51;6.45;;;2.08;;
79212;SDS011;68639;52.380;9.822;2023-07-13T14:27:16;5.38;;;1.77;;
79212;SDS011;68639;52.380;9.822;2023-07-13T14:29:41;4.30;;;1.90;;
79212;SDS011;68639;52.380;9.822;2023-07-13T14:32:10;4.90;;;1.92;;
79212;SDS011;68639;52.380;9.822;2023-07-13T14:34:36;8.27;;;2.40;;
79212;SDS011;68639;52.380;9.822;2023-07-13T14:37:01;6.10;;;2.03;;
79212;SDS011;68639;52.380;9.822;2023-07-13T14:39:26;4.97;;;1.98;;
79212;SDS011;68639;52.380;9.822;2023-07-13T14:41:52;5.18;;;2.08;;
79212;SDS011;68639;52.380;9.822;2023-07-13T14:44:20;5.40;;;2.10;;
79212;SDS011;68639;52.380;9.822;2023-07-13T14:46:45;9.40;;;2.50;;
79212;SDS011;68639;52.380;9.822;2023-07-13T14:51:48;4.78;;;1.63;;
79212;SDS011;68639;52.380;9.822;2023-07-13T14:54:13;3.33;;;1.50;;
79212;SDS011;68639;52.380;9.822;2023-07-13T14:56:39;3.40;;;1.45;;
79212;SDS011;68639;52.380;9.822;2023-07-13T14:59:04;2.88;;;1.50;;
79212;SDS011;68639;52.380;9.822;2023-07-13T15:01:30;6.03;;;1.58;;
79212;SDS011;68639;52.380;9.822;2023-07-13T15:03:55;4.25;;;1.58;;
79212;SDS011;68639;52.380;9.822;2023-07-13T15:06:20;3.63;;;1.55;;
79212;SDS011;68639;52.380;9.822;2023-07-13T15:08:46;3.38;;;1.55;;
79212;SDS011;68639;52.380;9.822;2023-07-13T15:11:11;3.75;;;1.60;;
79212;SDS011;68639;52.380;9.822;2023-07-13T15:13:37;6.88;;;1.95;;
79212;SDS011;68639;52.380;9.822;2023-07-13T15:16:02;4.75;;;1.95;;
79212;SDS011;68639;52.380;9.822;2023-07-13T15:18:28;5.43;;;1.90;;